Time;durP1;ratioP1;P1;durP2;ratioP2;P2;SDS_P1;SDS_P2;PMS_P1;PMS_P2;Temp;Humidity;BMP_temperature;BMP_pressure;BME280_temperature;BME280_humidity;BME280_pressure;Samples;Min_cycle;Max_cycle;Signal;HPM_P1;HPM_P2
2024/01/06 00:00:41;;;;;;;12.70;6.25;;;;;;;;;;5015462;28;20069;-72
2024/01/06 00:03:07;;;;;;;10.25;6.53;;;;;;;;;;5016459;28;20121;-73
2024/01/06 00:05:32;;;;;;;9.93;6.15;;;;;;;;;;5013258;28;20038;-72
2024/01/06 00:07:57;;;;;;;10.90;5.97;;;;;;;;;;5015840;28;20466;-72
2024/01/06 00:10:22;;;;;;;13.63;7.20;;;;;;;;;;5015740;28;20269;-73
2024/01/06 00:12:48;;;;;;;10.85;6.57;;;;;;;;;;5015787;28;20248;-73
2024/01/06 00:15:13;;;;;;;15.43;6.63;;;;;;;;;;5015350;28;20018;-73
2024/01/06 00:17:39;;;;;;;10.00;6.55;;;;;;;;;;5014319;28;20057;-73
2024/01/06 00:20:04;;;;;;;12.32;6.38;;;;;;;;;;5015572;28;20099;-72
2024/01/06 00:22:29;;;;;;;12.77;6.63;;;;;;;;;;5015819;28;20071;-78
2024/01/06 00:24:55;;;;;;;11.63;6.75;;;;;;;;;;5015179;28;20034;-73
2024/01/06 00:27:20;;;;;;;20.10;6.67;;;;;;;;;;5015162;28;20474;-73
2024/01/06 00:29:45;;;;;;;15.15;7.18;;;;;;;;;;5015360;28;20259;-73
2024/01/06 00:32:11;;;;;;;12.55;7.18;;;;;;;;;;5014080;28;20024;-73
2024/01/06 00:34:36;;;;;;;13.57;6.97;;;;;;;;;;5015687;28;20065;-73
2024/01/06 00:37:01;;;;;;;11.52;6.72;;;;;;;;;;5014968;28;20433;-72
2024/01/06 00:39:26;;;;;;;17.67;7.63;;;;;;;;;;5015263;28;20032;-72
2024/01/06 00:41:51;;;;;;;8.93;6.67;;;;;;;;;;5015111;28;20485;-72
2024/01/06 00:44:17;;;;;;;19.83;6.55;;;;;;;;;;5015626;28;20803;-72
2024/01/06 00:46:42;;;;;;;12.10;7.18;;;;;;;;;;5015920;28;20025;-73
2024/01/06 00:49:07;;;;;;;11.13;6.65;;;;;;;;;;5014978;28;20022;-73
2024/01/06 00:51:32;;;;;;;13.48;7.60;;;;;;;;;;5013821;28;20470;-73
2024/01/06 00:53:58;;;;;;;12.05;6.88;;;;;;;;;;5013838;28;20458;-72
2024/01/06 00:56:23;;;;;;;18.67;7.35;;;;;;;;;;5015389;28;20460;-73
2024/01/06 00:58:48;;;;;;;13.38;7.18;;;;;;;;;;5014719;28;20061;-73
2024/01/06 01:01:14;;;;;;;12.50;7.17;;;;;;;;;;5014789;28;20053;-73
2024/01/06 01:03:39;;;;;;;14.50;6.55;;;;;;;;;;5014671;28;20257;-74
2024/01/06 01:06:04;;;;;;;9.27;6.13;;;;;;;;;;5015381;28;20061;-73
2024/01/06 01:08:30;;;;;;;10.67;6.03;;;;;;;;;;5015083;28;20029;-74
2024/01/06 01:10:56;;;;;;;10.60;6.03;;;;;;;;;;5014789;28;20269;-73
2024/01/06 01:13:22;;;;;;;11.45;6.30;;;;;;;;;;5014691;28;20196;-73
2024/01/06 01:15:47;;;;;;;9.38;5.85;;;;;;;;;;5014595;28;20506;-73
2024/01/06 01:18:12;;;;;;;11.57;5.65;;;;;;;;;;5014618;28;20097;-72
2024/01/06 01:20:38;;;;;;;9.55;4.60;;;;;;;;;;5013918;28;20030;-78
2024/01/06 01:23:03;;;;;;;12.43;4.65;;;;;;;;;;5014367;28;20495;-72
2024/01/06 01:25:28;;;;;;;10.77;4.35;;;;;;;;;;5013005;28;20055;-73
2024/01/06 01:27:53;;;;;;;12.52;4.60;;;;;;;;;;5014211;28;20017;-73
2024/01/06 01:30:18;;;;;;;12.60;3.93;;;;;;;;;;5014356;28;20459;-72
2024/01/06 01:32:44;;;;;;;9.27;3.65;;;;;;;;;;5013881;28;20268;-73
2024/01/06 01:35:09;;;;;;;6.63;3.15;;;;;;;;;;5014646;28;20030;-72
2024/01/06 01:37:34;;;;;;;6.65;3.22;;;;;;;;;;5014784;28;20120;-74
2024/01/06 01:39:59;;;;;;;5.90;2.83;;;;;;;;;;5014116;28;20025;-73
2024/01/06 01:42:25;;;;;;;20.97;2.90;;;;;;;;;;5014079;28;20315;-73
2024/01/06 01:44:50;;;;;;;7.47;2.30;;;;;;;;;;5014058;28;20261;-73
2024/01/06 01:47:18;;;;;;;4.90;2.13;;;;;;;;;;5014182;28;20674;-73
2024/01/06 01:49:43;;;;;;;7.13;2.00;;;;;;;;;;5014637;28;20067;-74
2024/01/06 01:52:09;;;;;;;7.57;2.05;;;;;;;;;;5014026;28;20033;-73
2024/01/06 01:54:35;;;;;;;4.07;1.95;;;;;;;;;;5013814;28;20116;-73
2024/01/06 01:57:00;;;;;;;5.47;2.55;;;;;;;;;;5014370;28;20393;-74
2024/01/06 01:59:25;;;;;;;3.67;2.63;;;;;;;;;;5013784;28;20026;-73
2024/01/06 02:01:51;;;;;;;6.90;3.05;;;;;;;;;;5014076;28;20057;-73
2024/01/06 02:04:16;;;;;;;8.35;3.00;;;;;;;;;;5013848;28;20037;-73
2024/01/06 02:06:41;;;;;;;4.80;2.70;;;;;;;;;;5013816;28;20029;-73
2024/01/06 02:09:06;;;;;;;9.43;3.00;;;;;;;;;;5013619;28;20264;-72
2024/01/06 02:11:32;;;;;;;5.55;2.70;;;;;;;;;;5012744;28;20026;-73
2024/01/06 02:13:57;;;;;;;6.53;3.17;;;;;;;;;;5013595;28;20076;-74
2024/01/06 02:16:22;;;;;;;5.22;2.75;;;;;;;;;;5013649;28;20124;-73
2024/01/06 02:18:47;;;;;;;5.25;3.20;;;;;;;;;;4995947;28;20022;-73
2024/01/06 02:21:13;;;;;;;3.58;3.15;;;;;;;;;;5012458;28;20022;-73
2024/01/06 02:23:38;;;;;;;8.55;4.10;;;;;;;;;;5013547;28;20022;-73
2024/01/06 02:26:03;;;;;;;5.57;3.72;;;;;;;;;;5013520;28;20026;-74
2024/01/06 02:28:28;;;;;;;8.10;3.55;;;;;;;;;;5016293;28;20079;-74
2024/01/06 02:30:54;;;;;;;8.77;3.72;;;;;;;;;;5017529;28;20378;-74
2024/01/06 02:33:19;;;;;;;8.50;3.80;;;;;;;;;;5017444;28;20378;-72
2024/01/06 02:35:47;;;;;;;5.70;3.83;;;;;;;;;;5017514;28;20111;-73
2024/01/06 02:38:12;;;;;;;14.88;3.65;;;;;;;;;;5017475;28;20028;-73
2024/01/06 02:40:38;;;;;;;9.65;4.07;;;;;;;;;;5017396;28;20018;-73
2024/01/06 02:43:03;;;;;;;9.77;4.10;;;;;;;;;;5017337;28;20084;-73
2024/01/06 02:45:28;;;;;;;13.95;3.95;;;;;;;;;;5017899;28;20022;-73
2024/01/06 02:47:53;;;;;;;6.07;3.63;;;;;;;;;;5017205;28;20054;-74
2024/01/06 02:50:19;;;;;;;7.22;3.58;;;;;;;;;;5016186;28;20525;-73
2024/01/06 02:52:45;;;;;;;8.18;4.20;;;;;;;;;;5017172;28;20026;-73
2024/01/06 02:55:10;;;;;;;8.05;3.75;;;;;;;;;;5016941;28;20121;-73
2024/01/06 02:57:36;;;;;;;6.45;3.97;;;;;;;;;;5017389;28;20018;-73
2024/01/06 03:00:01;;;;;;;9.23;4.70;;;;;;;;;;5017060;28;20525;-73
2024/01/06 03:02:26;;;;;;;12.68;4.50;;;;;;;;;;5016742;28;20086;-73
2024/01/06 03:04:52;;;;;;;13.45;4.93;;;;;;;;;;5015932;28;20076;-76
2024/01/06 03:07:17;;;;;;;8.82;4.47;;;;;;;;;;5016635;28;20033;-74
2024/01/06 03:09:42;;;;;;;7.85;4.70;;;;;;;;;;5016865;28;20105;-73
2024/01/06 03:12:08;;;;;;;10.52;4.72;;;;;;;;;;5017033;28;20022;-73
2024/01/06 03:14:36;;;;;;;6.78;4.78;;;;;;;;;;5016895;28;20026;-73
2024/01/06 03:17:02;;;;;;;14.13;5.35;;;;;;;;;;5015339;28;20419;-74
2024/01/06 03:19:28;;;;;;;10.23;4.95;;;;;;;;;;5016403;28;20387;-73
2024/01/06 03:21:53;;;;;;;13.23;5.25;;;;;;;;;;5016628;28;20022;-81
2024/01/06 03:24:18;;;;;;;11.27;5.30;;;;;;;;;;5016806;28;20026;-74
2024/01/06 03:26:44;;;;;;;8.10;4.75;;;;;;;;;;5016927;28;20025;-74
2024/01/06 03:29:09;;;;;;;10.68;5.28;;;;;;;;;;5016485;28;20030;-73
2024/01/06 03:31:34;;;;;;;15.07;4.93;;;;;;;;;;5016775;28;20022;-72
2024/01/06 03:33:59;;;;;;;9.00;4.43;;;;;;;;;;5016301;28;20033;-73
2024/01/06 03:36:25;;;;;;;11.80;4.35;;;;;;;;;;5017151;28;20029;-73
2024/01/06 03:38:50;;;;;;;13.27;4.13;;;;;;;;;;5016070;28;20367;-73
2024/01/06 03:41:15;;;;;;;5.00;3.60;;;;;;;;;;5016503;28;20445;-73
2024/01/06 03:43:40;;;;;;;7.45;3.90;;;;;;;;;;5015183;28;20022;-73
2024/01/06 03:46:06;;;;;;;10.63;4.00;;;;;;;;;;5015870;28;20589;-73
2024/01/06 03:48:31;;;;;;;9.05;3.80;;;;;;;;;;5015159;28;20273;-73
2024/01/06 03:50:57;;;;;;;8.05;4.18;;;;;;;;;;5016072;28;20026;-78
2024/01/06 03:53:22;;;;;;;5.90;3.35;;;;;;;;;;5016057;28;20034;-73
2024/01/06 03:55:47;;;;;;;13.63;4.05;;;;;;;;;;5015743;28;20105;-73
2024/01/06 03:58:12;;;;;;;9.23;4.83;;;;;;;;;;5016158;28;20100;-73
2024/01/06 04:00:38;;;;;;;12.13;4.38;;;;;;;;;;5014844;28;20264;-72
2024/01/06 04:03:04;;;;;;;7.65;3.67;;;;;;;;;;5016406;28;20474;-73
2024/01/06 04:05:29;;;;;;;7.35;3.85;;;;;;;;;;5015878;28;20101;-73
2024/01/06 04:07:54;;;;;;;9.38;4.10;;;;;;;;;;5015524;28;20056;-73
2024/01/06 04:10:20;;;;;;;11.07;3.67;;;;;;;;;;5015724;28;20030;-73
2024/01/06 04:12:45;;;;;;;9.52;3.60;;;;;;;;;;5015392;28;20026;-73
2024/01/06 04:15:10;;;;;;;7.88;3.80;;;;;;;;;;5016509;28;20026;-74
2024/01/06 04:17:35;;;;;;;6.90;3.50;;;;;;;;;;5015607;28;20348;-73
2024/01/06 04:20:01;;;;;;;7.13;3.30;;;;;;;;;;5015575;28;20459;-76
2024/01/06 04:22:26;;;;;;;7.57;3.53;;;;;;;;;;5015714;28;20347;-73
2024/01/06 04:24:51;;;;;;;11.25;3.97;;;;;;;;;;5015187;28;20156;-73
2024/01/06 04:27:17;;;;;;;8.65;3.78;;;;;;;;;;5016318;28;20021;-74
2024/01/06 04:29:42;;;;;;;4.45;3.42;;;;;;;;;;5015336;28;20033;-73
2024/01/06 04:32:07;;;;;;;10.93;3.63;;;;;;;;;;5015328;28;20049;-74
2024/01/06 04:34:33;;;;;;;6.90;3.03;;;;;;;;;;5015276;28;20026;-72
2024/01/06 04:36:58;;;;;;;8.23;3.45;;;;;;;;;;5015784;28;20465;-73
2024/01/06 04:39:23;;;;;;;5.95;3.45;;;;;;;;;;5015312;28;20455;-73
2024/01/06 04:41:49;;;;;;;4.05;3.10;;;;;;;;;;5014089;28;20109;-73
2024/01/06 04:44:14;;;;;;;6.22;3.60;;;;;;;;;;5014696;28;20088;-72
2024/01/06 04:46:39;;;;;;;6.45;3.60;;;;;;;;;;5014726;28;20474;-72
2024/01/06 04:49:04;;;;;;;9.85;3.88;;;;;;;;;;5015548;28;20025;-72
2024/01/06 04:51:30;;;;;;;12.38;3.78;;;;;;;;;;5013815;28;20022;-73
2024/01/06 04:53:55;;;;;;;6.53;3.55;;;;;;;;;;5014862;28;20467;-73
2024/01/06 04:56:20;;;;;;;8.27;3.55;;;;;;;;;;5013477;28;20026;-73
2024/01/06 04:58:45;;;;;;;7.90;3.07;;;;;;;;;;5014504;28;20025;-73
2024/01/06 05:01:11;;;;;;;5.28;2.83;;;;;;;;;;5014372;28;20281;-73
2024/01/06 05:03:36;;;;;;;7.68;3.70;;;;;;;;;;5013983;28;20054;-74
2024/01/06 05:06:01;;;;;;;7.50;3.58;;;;;;;;;;5014448;28;20045;-73
2024/01/06 05:08:26;;;;;;;8.93;3.47;;;;;;;;;;5014609;28;20018;-73
2024/01/06 05:10:52;;;;;;;5.13;3.35;;;;;;;;;;5014633;28;20041;-72
2024/01/06 05:13:17;;;;;;;8.68;3.63;;;;;;;;;;5014382;28;20021;-73
2024/01/06 05:15:43;;;;;;;6.85;4.20;;;;;;;;;;5014290;28;20030;-73
2024/01/06 05:18:08;;;;;;;7.47;3.55;;;;;;;;;;5014553;28;20381;-72
2024/01/06 05:20:33;;;;;;;7.50;3.60;;;;;;;;;;5014442;28;20374;-73
2024/01/06 05:22:58;;;;;;;8.98;3.92;;;;;;;;;;5014411;28;20026;-73
2024/01/06 05:25:23;;;;;;;8.10;4.15;;;;;;;;;;5014376;28;20026;-74
2024/01/06 05:27:49;;;;;;;5.18;3.55;;;;;;;;;;5014443;28;20026;-73
2024/01/06 05:30:14;;;;;;;7.80;3.85;;;;;;;;;;5014543;28;20018;-72
2024/01/06 05:32:39;;;;;;;7.95;3.67;;;;;;;;;;5014700;28;20025;-73
2024/01/06 05:35:04;;;;;;;11.20;3.90;;;;;;;;;;5014490;28;20488;-74
2024/01/06 05:37:30;;;;;;;4.45;3.60;;;;;;;;;;5016757;28;20080;-73
2024/01/06 05:39:58;;;;;;;9.32;3.88;;;;;;;;;;5016473;28;20104;-73
2024/01/06 05:42:23;;;;;;;11.70;3.53;;;;;;;;;;5016336;28;20358;-74
2024/01/06 05:44:49;;;;;;;9.57;3.22;;;;;;;;;;5016841;28;20120;-73
2024/01/06 05:47:14;;;;;;;6.90;3.45;;;;;;;;;;5013837;28;20076;-75
2024/01/06 05:49:43;;;;;;;7.70;3.50;;;;;;;;;;5015083;28;20091;-73
2024/01/06 05:52:08;;;;;;;4.72;3.40;;;;;;;;;;5015375;28;20022;-72
2024/01/06 05:54:34;;;;;;;5.70;3.58;;;;;;;;;;5014646;28;20034;-72
2024/01/06 05:56:59;;;;;;;4.75;3.05;;;;;;;;;;5014610;28;20022;-73
2024/01/06 05:59:25;;;;;;;6.88;3.05;;;;;;;;;;5014518;28;20022;-73
2024/01/06 06:01:50;;;;;;;9.35;3.33;;;;;;;;;;5013998;28;20462;-73
2024/01/06 06:04:15;;;;;;;4.00;2.85;;;;;;;;;;5012295;28;20550;-78
2024/01/06 06:06:40;;;;;;;8.45;2.78;;;;;;;;;;5013787;28;20022;-73
2024/01/06 06:09:07;;;;;;;3.25;2.90;;;;;;;;;;5014315;28;20022;-73
2024/01/06 06:11:32;;;;;;;5.13;2.83;;;;;;;;;;5014186;28;20434;-73
2024/01/06 06:13:58;;;;;;;5.55;2.90;;;;;;;;;;5013688;28;20083;-73
2024/01/06 06:16:23;;;;;;;5.50;2.97;;;;;;;;;;5013798;28;20455;-73
2024/01/06 06:18:48;;;;;;;4.50;3.00;;;;;;;;;;5013400;28;20451;-73
2024/01/06 06:21:13;;;;;;;6.10;3.00;;;;;;;;;;5012334;28;20473;-73
2024/01/06 06:23:38;;;;;;;3.50;2.60;;;;;;;;;;5013602;28;20272;-73
2024/01/06 06:26:07;;;;;;;5.60;3.00;;;;;;;;;;5013605;28;20022;-72
2024/01/06 06:28:34;;;;;;;5.78;3.13;;;;;;;;;;5012261;28;20382;-73
2024/01/06 06:30:59;;;;;;;4.75;3.10;;;;;;;;;;5013532;28;20116;-73
2024/01/06 06:33:24;;;;;;;4.07;3.08;;;;;;;;;;5012095;28;20502;-74
2024/01/06 06:35:49;;;;;;;10.75;3.47;;;;;;;;;;5013706;28;20030;-73
2024/01/06 06:38:15;;;;;;;6.30;3.13;;;;;;;;;;5013415;28;20026;-73
2024/01/06 06:40:40;;;;;;;9.93;2.95;;;;;;;;;;5013274;28;20048;-73
2024/01/06 06:43:05;;;;;;;5.15;3.50;;;;;;;;;;5013393;28;20049;-73
2024/01/06 06:45:30;;;;;;;7.65;3.33;;;;;;;;;;5013284;28;20057;-73
2024/01/06 06:47:56;;;;;;;9.75;3.63;;;;;;;;;;5013315;28;20052;-72
2024/01/06 06:50:21;;;;;;;6.97;3.72;;;;;;;;;;5013340;28;20026;-79
2024/01/06 06:52:46;;;;;;;5.10;3.08;;;;;;;;;;5012006;28;20084;-72
2024/01/06 06:55:11;;;;;;;6.80;3.72;;;;;;;;;;5013181;28;20025;-72
2024/01/06 06:57:37;;;;;;;7.45;3.67;;;;;;;;;;5013134;28;20033;-73
2024/01/06 07:00:02;;;;;;;8.65;3.70;;;;;;;;;;5011998;28;20044;-72
2024/01/06 07:02:27;;;;;;;6.03;3.63;;;;;;;;;;5013595;28;20451;-73
2024/01/06 07:04:53;;;;;;;9.88;4.18;;;;;;;;;;5013742;28;20061;-73
2024/01/06 07:07:18;;;;;;;6.80;3.70;;;;;;;;;;5013714;28;20108;-73
2024/01/06 07:09:44;;;;;;;3.55;3.25;;;;;;;;;;5013063;28;20030;-73
2024/01/06 07:12:09;;;;;;;9.60;3.90;;;;;;;;;;5011907;28;20481;-73
2024/01/06 07:14:34;;;;;;;7.35;3.80;;;;;;;;;;5014640;28;20295;-73
2024/01/06 07:16:59;;;;;;;9.93;3.47;;;;;;;;;;5015571;28;20117;-73
2024/01/06 07:19:25;;;;;;;6.30;3.58;;;;;;;;;;5015541;28;20032;-79
2024/01/06 07:21:50;;;;;;;5.90;4.00;;;;;;;;;;5015423;28;20029;-73
2024/01/06 07:24:15;;;;;;;6.15;3.90;;;;;;;;;;5017114;28;20462;-73
2024/01/06 07:26:40;;;;;;;4.75;3.55;;;;;;;;;;5016163;28;20026;-73
2024/01/06 07:29:07;;;;;;;5.82;3.25;;;;;;;;;;5016149;28;20034;-73
2024/01/06 07:31:33;;;;;;;10.02;3.92;;;;;;;;;;5016327;28;20064;-72
2024/01/06 07:33:58;;;;;;;5.43;3.38;;;;;;;;;;5016359;28;20061;-73
2024/01/06 07:36:23;;;;;;;8.40;3.88;;;;;;;;;;5016850;28;20037;-74
2024/01/06 07:38:48;;;;;;;6.50;3.50;;;;;;;;;;5016289;28;20026;-72
2024/01/06 07:41:14;;;;;;;7.70;4.97;;;;;;;;;;5016180;28;20268;-72
2024/01/06 07:43:39;;;;;;;7.97;3.90;;;;;;;;;;5015776;28;20113;-73
2024/01/06 07:46:06;;;;;;;6.88;4.05;;;;;;;;;;5016025;28;20038;-74
2024/01/06 07:48:32;;;;;;;6.55;3.95;;;;;;;;;;5016856;28;20034;-73
2024/01/06 07:50:57;;;;;;;4.50;3.50;;;;;;;;;;5015934;28;20352;-74
2024/01/06 07:53:22;;;;;;;7.80;3.97;;;;;;;;;;5015492;28;20038;-73
2024/01/06 07:55:47;;;;;;;7.07;3.80;;;;;;;;;;5015928;28;20292;-73
2024/01/06 07:58:13;;;;;;;8.45;4.28;;;;;;;;;;5015980;28;20793;-73
2024/01/06 08:00:38;;;;;;;8.30;4.10;;;;;;;;;;5015729;28;20370;-74
2024/01/06 08:03:05;;;;;;;6.63;4.15;;;;;;;;;;5015562;28;20049;-75
2024/01/06 08:05:31;;;;;;;6.32;4.25;;;;;;;;;;5016412;28;20041;-78
2024/01/06 08:07:56;;;;;;;8.48;4.10;;;;;;;;;;5016347;28;20038;-75
2024/01/06 08:10:21;;;;;;;6.22;4.20;;;;;;;;;;5015780;28;20036;-73
2024/01/06 08:12:48;;;;;;;9.70;4.40;;;;;;;;;;5015854;28;20018;-74
2024/01/06 08:15:13;;;;;;;7.93;4.07;;;;;;;;;;5015574;28;20493;-74
2024/01/06 08:17:40;;;;;;;8.80;4.25;;;;;;;;;;5015489;28;20025;-73
2024/01/06 08:20:06;;;;;;;7.05;4.00;;;;;;;;;;5015936;28;20455;-74
2024/01/06 08:22:31;;;;;;;7.93;3.97;;;;;;;;;;5014949;28;20033;-73
2024/01/06 08:24:56;;;;;;;11.35;4.60;;;;;;;;;;5014999;28;20057;-74
2024/01/06 08:27:23;;;;;;;6.72;3.95;;;;;;;;;;5015057;28;20124;-74
2024/01/06 08:29:48;;;;;;;6.43;3.83;;;;;;;;;;5015313;28;20057;-74
2024/01/06 08:32:14;;;;;;;11.48;4.47;;;;;;;;;;5015525;28;20037;-74
2024/01/06 08:34:40;;;;;;;7.72;3.83;;;;;;;;;;5015004;28;20044;-75
2024/01/06 08:37:05;;;;;;;7.93;4.10;;;;;;;;;;5014292;28;20030;-75
2024/01/06 08:39:30;;;;;;;6.72;4.15;;;;;;;;;;5013620;28;20034;-75
2024/01/06 08:41:55;;;;;;;7.35;4.18;;;;;;;;;;5015244;28;20029;-73
2024/01/06 08:44:21;;;;;;;10.35;4.75;;;;;;;;;;5014540;28;20026;-74
2024/01/06 08:46:46;;;;;;;9.38;4.53;;;;;;;;;;5014688;28;20022;-72
2024/01/06 08:49:11;;;;;;;5.93;3.97;;;;;;;;;;5014212;28;20080;-74
2024/01/06 08:51:36;;;;;;;7.97;3.75;;;;;;;;;;5015115;28;20018;-73
2024/01/06 08:54:05;;;;;;;11.20;4.18;;;;;;;;;;5013194;28;20177;-74
2024/01/06 08:56:30;;;;;;;8.95;3.90;;;;;;;;;;5014412;28;20029;-75
2024/01/06 08:58:56;;;;;;;6.18;3.42;;;;;;;;;;5014376;28;20022;-75
2024/01/06 09:01:22;;;;;;;5.97;3.60;;;;;;;;;;5014415;28;20033;-75
2024/01/06 09:03:47;;;;;;;7.90;3.58;;;;;;;;;;5014381;28;20053;-74
2024/01/06 09:06:13;;;;;;;7.15;3.20;;;;;;;;;;5014970;28;20026;-74
2024/01/06 09:08:38;;;;;;;7.63;3.15;;;;;;;;;;5013236;28;20459;-73
2024/01/06 09:11:03;;;;;;;9.05;3.00;;;;;;;;;;5014213;28;20114;-74
2024/01/06 09:13:29;;;;;;;3.35;2.55;;;;;;;;;;5014688;28;20040;-75
2024/01/06 09:15:54;;;;;;;5.57;2.95;;;;;;;;;;5014119;28;20065;-75
2024/01/06 09:18:19;;;;;;;9.73;3.17;;;;;;;;;;5014423;28;20025;-74
2024/01/06 09:20:47;;;;;;;5.47;2.97;;;;;;;;;;5013858;28;20514;-74
2024/01/06 09:23:12;;;;;;;8.18;3.30;;;;;;;;;;5014035;28;20033;-75
2024/01/06 09:25:39;;;;;;;9.23;3.38;;;;;;;;;;5014325;28;20104;-74
2024/01/06 09:28:05;;;;;;;7.57;3.05;;;;;;;;;;5014821;28;20029;-76
2024/01/06 09:30:30;;;;;;;8.95;3.28;;;;;;;;;;5014060;28;20021;-74
2024/01/06 09:32:55;;;;;;;7.90;2.65;;;;;;;;;;5013847;28;20026;-74
2024/01/06 09:35:20;;;;;;;4.90;2.70;;;;;;;;;;5013772;28;20030;-74
2024/01/06 09:37:46;;;;;;;7.38;2.72;;;;;;;;;;5013611;28;20470;-74
2024/01/06 09:40:12;;;;;;;7.05;2.92;;;;;;;;;;5013586;28;20025;-73
2024/01/06 09:42:38;;;;;;;6.63;3.10;;;;;;;;;;5013861;28;20113;-76
2024/01/06 09:45:03;;;;;;;4.68;2.58;;;;;;;;;;5014916;28;20069;-73
2024/01/06 09:47:33;;;;;;;3.85;2.60;;;;;;;;;;5014054;28;20022;-75
2024/01/06 09:49:59;;;;;;;5.68;2.67;;;;;;;;;;5013671;28;20029;-75
2024/01/06 09:52:25;;;;;;;5.85;2.50;;;;;;;;;;5013595;28;20026;-74
2024/01/06 09:54:51;;;;;;;5.97;2.38;;;;;;;;;;5013295;28;20042;-73
2024/01/06 09:57:17;;;;;;;2.97;2.20;;;;;;;;;;5014153;28;20513;-74
2024/01/06 09:59:44;;;;;;;2.35;1.98;;;;;;;;;;5013544;28;20033;-75
2024/01/06 10:02:10;;;;;;;5.22;2.22;;;;;;;;;;5013588;28;20069;-74
2024/01/06 10:04:35;;;;;;;5.05;2.33;;;;;;;;;;5013559;28;20398;-73
2024/01/06 10:07:00;;;;;;;6.88;2.33;;;;;;;;;;5014298;28;20022;-74
2024/01/06 10:09:26;;;;;;;3.08;2.20;;;;;;;;;;5013920;28;20030;-73
2024/01/06 10:11:54;;;;;;;8.13;2.58;;;;;;;;;;5012953;28;20041;-75
2024/01/06 10:14:19;;;;;;;3.42;1.95;;;;;;;;;;5013771;28;20030;-75
2024/01/06 10:16:45;;;;;;;4.47;2.17;;;;;;;;;;5013602;28;20170;-74
2024/01/06 10:19:10;;;;;;;10.23;4.13;;;;;;;;;;5014211;28;20101;-74
2024/01/06 10:21:37;;;;;;;3.05;2.42;;;;;;;;;;5013503;28;20022;-73
2024/01/06 10:24:03;;;;;;;2.92;2.40;;;;;;;;;;5013052;28;20029;-72
2024/01/06 10:26:28;;;;;;;4.40;2.72;;;;;;;;;;5013421;28;20021;-74
2024/01/06 10:28:53;;;;;;;2.75;2.08;;;;;;;;;;5013696;28;20133;-73
2024/01/06 10:31:19;;;;;;;8.60;2.55;;;;;;;;;;5013191;28;20058;-73
2024/01/06 10:33:44;;;;;;;5.25;2.80;;;;;;;;;;5013327;28;20116;-74
2024/01/06 10:36:09;;;;;;;3.70;2.05;;;;;;;;;;5013405;28;20065;-73
2024/01/06 10:38:35;;;;;;;5.10;2.60;;;;;;;;;;5013566;28;20018;-73
2024/01/06 10:41:06;;;;;;;3.13;2.47;;;;;;;;;;5013067;28;20076;-75
2024/01/06 10:43:36;;;;;;;6.70;2.65;;;;;;;;;;5013473;28;20057;-73
2024/01/06 10:46:04;;;;;;;3.92;2.35;;;;;;;;;;5013297;28;20021;-73
2024/01/06 10:48:30;;;;;;;3.75;2.90;;;;;;;;;;5013692;28;20014;-74
2024/01/06 10:50:56;;;;;;;6.72;3.65;;;;;;;;;;5017271;28;20024;-72
2024/01/06 10:53:24;;;;;;;3.72;2.50;;;;;;;;;;5017271;28;20026;-73
2024/01/06 10:55:51;;;;;;;4.78;2.83;;;;;;;;;;5015941;28;20113;-72
2024/01/06 10:58:17;;;;;;;8.18;3.10;;;;;;;;;;5017890;28;20069;-73
2024/01/06 11:00:42;;;;;;;5.80;2.90;;;;;;;;;;5017408;28;20032;-74
2024/01/06 11:03:09;;;;;;;7.65;2.50;;;;;;;;;;5015872;28;20033;-73
2024/01/06 11:05:35;;;;;;;5.95;2.50;;;;;;;;;;5016591;28;20105;-73
2024/01/06 11:08:01;;;;;;;6.13;3.30;;;;;;;;;;5017019;28;20121;-73
2024/01/06 11:10:29;;;;;;;9.60;3.17;;;;;;;;;;5017041;28;20473;-73
2024/01/06 11:13:13;;;;;;;3.33;2.58;;;;;;;;;;5016883;28;20466;-75
2024/01/06 11:15:42;;;;;;;9.52;3.83;;;;;;;;;;5016746;28;20029;-73
2024/01/06 11:18:08;;;;;;;13.18;3.67;;;;;;;;;;5016343;28;20017;-73
2024/01/06 11:20:33;;;;;;;6.47;3.65;;;;;;;;;;5016841;28;20022;-73
2024/01/06 11:23:18;;;;;;;8.20;3.72;;;;;;;;;;5016600;28;20029;-73
2024/01/06 11:25:43;;;;;;;6.88;3.42;;;;;;;;;;5016577;28;20030;-74
2024/01/06 11:28:10;;;;;;;5.85;3.03;;;;;;;;;;5016598;28;20033;-73
2024/01/06 11:30:35;;;;;;;5.38;2.92;;;;;;;;;;5016983;28;20489;-72
2024/01/06 11:33:00;;;;;;;3.70;2.75;;;;;;;;;;5016954;28;20109;-73
2024/01/06 11:35:29;;;;;;;6.07;3.05;;;;;;;;;;5016332;28;20490;-72
2024/01/06 11:37:56;;;;;;;7.10;2.90;;;;;;;;;;5016368;28;20101;-73
2024/01/06 11:40:29;;;;;;;5.10;2.97;;;;;;;;;;5016257;28;20446;-73
2024/01/06 11:43:06;;;;;;;4.47;2.80;;;;;;;;;;5017598;28;20077;-74
2024/01/06 11:45:32;;;;;;;6.25;3.15;;;;;;;;;;5016651;28;20030;-73
2024/01/06 11:48:01;;;;;;;4.65;2.13;;;;;;;;;;5016586;28;20072;-73
2024/01/06 11:50:27;;;;;;;3.67;2.72;;;;;;;;;;5016465;28;20022;-73
2024/01/06 11:52:52;;;;;;;13.48;2.78;;;;;;;;;;5016096;28;20478;-73
2024/01/06 11:55:21;;;;;;;4.22;2.20;;;;;;;;;;5015948;28;20038;-73
2024/01/06 11:57:47;;;;;;;6.45;2.10;;;;;;;;;;5014791;28;20048;-73
2024/01/06 12:00:16;;;;;;;4.28;2.30;;;;;;;;;;5015977;28;20030;-73
2024/01/06 12:02:41;;;;;;;4.18;2.10;;;;;;;;;;5014970;28;20021;-72
2024/01/06 12:05:12;;;;;;;2.53;2.00;;;;;;;;;;5013898;28;20062;-75
2024/01/06 12:07:38;;;;;;;3.65;2.30;;;;;;;;;;5014710;28;20053;-74
2024/01/06 12:10:03;;;;;;;6.23;2.10;;;;;;;;;;5015025;28;20056;-73
2024/01/06 12:12:28;;;;;;;4.28;1.88;;;;;;;;;;5014817;28;20361;-73
2024/01/06 12:14:54;;;;;;;4.17;2.03;;;;;;;;;;5013456;28;20053;-74
2024/01/06 12:17:20;;;;;;;4.55;1.65;;;;;;;;;;5014560;28;20706;-73
2024/01/06 12:19:46;;;;;;;3.33;2.25;;;;;;;;;;5014802;28;20088;-74
2024/01/06 12:22:13;;;;;;;3.70;2.25;;;;;;;;;;5014397;28;20022;-74
2024/01/06 12:24:38;;;;;;;3.28;1.83;;;;;;;;;;5014957;28;20092;-73
2024/01/06 12:27:06;;;;;;;6.18;1.77;;;;;;;;;;5014085;28;20018;-74
2024/01/06 12:29:31;;;;;;;3.97;1.90;;;;;;;;;;5014106;28;20026;-74
2024/01/06 12:31:58;;;;;;;1.50;1.33;;;;;;;;;;5013803;28;20028;-74
2024/01/06 12:34:24;;;;;;;3.33;1.58;;;;;;;;;;5013861;28;20038;-74
2024/01/06 12:36:52;;;;;;;3.58;1.50;;;;;;;;;;5013658;28;20025;-73
2024/01/06 12:39:17;;;;;;;3.88;1.63;;;;;;;;;;5014282;28;20041;-75
2024/01/06 12:41:42;;;;;;;2.90;1.70;;;;;;;;;;5013890;28;20080;-74
2024/01/06 12:44:09;;;;;;;3.65;1.77;;;;;;;;;;5012672;28;20022;-73
2024/01/06 12:46:34;;;;;;;3.70;1.55;;;;;;;;;;5012546;28;20101;-73
2024/01/06 12:49:00;;;;;;;3.55;1.90;;;;;;;;;;5014616;28;20101;-74
2024/01/06 12:51:25;;;;;;;2.20;1.40;;;;;;;;;;5013801;28;20022;-73
2024/01/06 12:53:50;;;;;;;6.22;1.45;;;;;;;;;;5012474;28;20378;-73
2024/01/06 12:56:15;;;;;;;8.18;2.25;;;;;;;;;;5012210;28;20486;-73
2024/01/06 12:58:41;;;;;;;3.08;1.40;;;;;;;;;;5013684;28;20374;-75
2024/01/06 13:01:07;;;;;;;4.65;1.83;;;;;;;;;;5013619;28;20448;-73
2024/01/06 13:03:32;;;;;;;4.13;1.50;;;;;;;;;;4971716;28;1218430;-74
2024/01/06 13:05:57;;;;;;;3.78;1.70;;;;;;;;;;5014964;28;20045;-75
2024/01/06 13:08:22;;;;;;;3.17;1.60;;;;;;;;;;5013486;28;20041;-76
2024/01/06 13:10:48;;;;;;;2.42;1.52;;;;;;;;;;5014565;28;20017;-75
2024/01/06 13:13:13;;;;;;;2.50;1.60;;;;;;;;;;5016651;28;20022;-74
2024/01/06 13:15:38;;;;;;;5.18;1.90;;;;;;;;;;5017465;28;20025;-74
2024/01/06 13:18:04;;;;;;;4.85;1.80;;;;;;;;;;5019067;28;20018;-74
2024/01/06 13:20:29;;;;;;;8.18;2.25;;;;;;;;;;5017159;28;20026;-74
2024/01/06 13:22:55;;;;;;;2.43;1.43;;;;;;;;;;5017543;28;20461;-74
2024/01/06 13:25:22;;;;;;;2.88;1.40;;;;;;;;;;5016543;28;20777;-74
2024/01/06 13:27:47;;;;;;;3.70;1.50;;;;;;;;;;5017004;28;20107;-75
2024/01/06 13:30:15;;;;;;;5.57;2.08;;;;;;;;;;5018133;28;20033;-75
2024/01/06 13:32:40;;;;;;;1.60;1.40;;;;;;;;;;5015756;28;20038;-74
2024/01/06 13:35:06;;;;;;;4.30;1.60;;;;;;;;;;5013621;28;20481;-74
2024/01/06 13:37:32;;;;;;;3.13;1.27;;;;;;;;;;5015002;28;20022;-75
2024/01/06 13:39:57;;;;;;;1.90;1.55;;;;;;;;;;5014355;28;20021;-76
2024/01/06 13:42:22;;;;;;;3.05;1.77;;;;;;;;;;5014187;28;20423;-74
2024/01/06 13:44:50;;;;;;;2.88;1.80;;;;;;;;;;5014243;28;20517;-74
2024/01/06 13:47:16;;;;;;;4.50;1.70;;;;;;;;;;5012477;28;20022;-73
2024/01/06 13:49:44;;;;;;;3.97;1.83;;;;;;;;;;5013848;28;20025;-75
2024/01/06 13:52:09;;;;;;;3.28;1.50;;;;;;;;;;5013946;28;20092;-73
2024/01/06 13:54:34;;;;;;;2.25;1.60;;;;;;;;;;5013151;28;20026;-73
2024/01/06 13:57:00;;;;;;;3.42;1.50;;;;;;;;;;5013761;28;20090;-74
2024/01/06 13:59:25;;;;;;;1.73;1.50;;;;;;;;;;5013973;28;20473;-73
2024/01/06 14:01:50;;;;;;;4.47;1.80;;;;;;;;;;5012113;28;20177;-73
2024/01/06 14:04:16;;;;;;;3.10;1.98;;;;;;;;;;5013556;28;20057;-75
2024/01/06 14:06:42;;;;;;;4.22;2.00;;;;;;;;;;5014090;28;20050;-76
2024/01/06 14:09:07;;;;;;;2.75;1.60;;;;;;;;;;5013503;28;20516;-75
2024/01/06 14:11:33;;;;;;;3.05;1.75;;;;;;;;;;5013424;28;20435;-75
2024/01/06 14:13:59;;;;;;;2.22;1.75;;;;;;;;;;5013627;28;20052;-74
2024/01/06 14:16:24;;;;;;;3.35;1.80;;;;;;;;;;5013851;28;20425;-74
2024/01/06 14:18:49;;;;;;;5.15;1.60;;;;;;;;;;5013525;28;20028;-73
2024/01/06 14:21:15;;;;;;;5.32;1.58;;;;;;;;;;5013377;28;20109;-74
2024/01/06 14:23:41;;;;;;;4.32;1.55;;;;;;;;;;5011946;28;20455;-74
2024/01/06 14:26:06;;;;;;;4.65;1.63;;;;;;;;;;5011947;28;20026;-74
2024/01/06 14:28:32;;;;;;;3.03;1.70;;;;;;;;;;5013226;28;20477;-75
2024/01/06 14:30:57;;;;;;;2.10;1.50;;;;;;;;;;5013861;28;20041;-75